sensor_id;sensor_type;location;lat;lon;timestamp;pressure;altitude;pressure_sealevel;temperature;humidity
31538;BME280;18147;51.952;6.146;2023-02-13T00:01:27;103681.09;;;7.45;100.00
31538;BME280;18147;51.952;6.146;2023-02-13T00:03:53;103682.88;;;7.46;100.00
31538;BME280;18147;51.952;6.146;2023-02-13T00:06:18;103689.94;;;7.43;100.00
31538;BME280;18147;51.952;6.146;2023-02-13T00:08:44;103680.22;;;7.45;100.00
31538;BME280;18147;51.952;6.146;2023-02-13T00:11:10;103680.28;;;7.30;100.00
31538;BME280;18147;51.952;6.146;2023-02-13T00:13:35;103674.09;;;7.29;100.00
31538;BME280;18147;51.952;6.146;2023-02-13T00:16:03;103673.25;;;7.24;100.00
31538;BME280;18147;51.952;6.146;2023-02-13T00:18:32;103669.66;;;7.34;100.00
31538;BME280;18147;51.952;6.146;2023-02-13T00:21:09;103670.50;;;7.45;100.00
31538;BME280;18147;51.952;6.146;2023-02-13T00:23:36;103671.25;;;7.66;100.00
31538;BME280;18147;51.952;6.146;2023-02-13T00:26:06;103672.22;;;7.52;100.00
31538;BME280;18147;51.952;6.146;2023-02-13T00:28:32;103668.66;;;7.58;100.00
31538;BME280;18147;51.952;6.146;2023-02-13T00:31:04;103673.22;;;7.30;100.00
31538;BME280;18147;51.952;6.146;2023-02-13T00:33:30;103672.25;;;7.45;100.00
31538;BME280;18147;51.952;6.146;2023-02-13T00:38:35;103667.84;;;7.41;100.00
31538;BME280;18147;51.952;6.146;2023-02-13T00:41:01;103666.06;;;7.49;100.00
31538;BME280;18147;51.952;6.146;2023-02-13T00:43:34;103667.09;;;7.14;100.00
31538;BME280;18147;51.952;6.146;2023-02-13T00:46:00;103665.31;;;7.12;100.00
31538;BME280;18147;51.952;6.146;2023-02-13T00:48:27;103662.59;;;7.30;100.00
31538;BME280;18147;51.952;6.146;2023-02-13T00:50:53;103663.50;;;7.29;100.00
31538;BME280;18147;51.952;6.146;2023-02-13T00:53:20;103660.69;;;7.57;100.00
31538;BME280;18147;51.952;6.146;2023-02-13T00:55:45;103666.91;;;7.51;100.00
31538;BME280;18147;51.952;6.146;2023-02-13T00:58:11;103672.25;;;7.45;100.00
31538;BME280;18147;51.952;6.146;2023-02-13T01:00:37;103661.75;;;7.23;100.00
31538;BME280;18147;51.952;6.146;2023-02-13T01:03:04;103667.94;;;7.16;100.00
31538;BME280;18147;51.952;6.146;2023-02-13T01:05:30;103662.66;;;7.18;100.00
31538;BME280;18147;51.952;6.146;2023-02-13T01:07:55;103658.09;;;7.43;100.00
31538;BME280;18147;51.952;6.146;2023-02-13T01:10:21;103658.13;;;7.40;100.00
31538;BME280;18147;51.952;6.146;2023-02-13T01:12:47;103658.97;;;7.46;100.00
31538;BME280;18147;51.952;6.146;2023-02-13T01:15:12;103666.84;;;7.66;100.00
31538;BME280;18147;51.952;6.146;2023-02-13T01:17:38;103659.84;;;7.51;100.00
31538;BME280;18147;51.952;6.146;2023-02-13T01:20:06;103657.19;;;7.53;100.00
31538;BME280;18147;51.952;6.146;2023-02-13T01:22:32;103659.94;;;7.33;100.00
31538;BME280;18147;51.952;6.146;2023-02-13T01:24:58;103665.22;;;7.35;100.00
31538;BME280;18147;51.952;6.146;2023-02-13T01:27:27;103663.31;;;7.64;100.00
31538;BME280;18147;51.952;6.146;2023-02-13T01:29:53;103662.59;;;7.27;100.00
31538;BME280;18147;51.952;6.146;2023-02-13T01:32:19;103657.31;;;7.24;100.00
31538;BME280;18147;51.952;6.146;2023-02-13T01:34:44;103660.91;;;7.14;100.00
31538;BME280;18147;51.952;6.146;2023-02-13T01:37:11;103650.28;;;7.11;100.00
31538;BME280;18147;51.952;6.146;2023-02-13T01:39:36;103652.84;;;7.27;100.00
31538;BME280;18147;51.952;6.146;2023-02-13T01:42:02;103656.47;;;7.11;100.00
31538;BME280;18147;51.952;6.146;2023-02-13T01:44:51;103652.13;;;6.89;100.00
31538;BME280;18147;51.952;6.146;2023-02-13T01:47:41;103654.63;;;7.30;100.00
31538;BME280;18147;51.952;6.146;2023-02-13T01:50:16;103642.19;;;7.40;100.00
31538;BME280;18147;51.952;6.146;2023-02-13T01:52:51;103637.78;;;7.43;100.00
31538;BME280;18147;51.952;6.146;2023-02-13T01:55:19;103640.34;;;7.52;100.00
31538;BME280;18147;51.952;6.146;2023-02-13T01:57:50;103637.66;;;7.62;100.00
31538;BME280;18147;51.952;6.146;2023-02-13T02:00:17;103648.38;;;7.40;100.00
31538;BME280;18147;51.952;6.146;2023-02-13T02:02:50;103641.38;;;7.22;100.00
31538;BME280;18147;51.952;6.146;2023-02-13T02:05:21;103643.03;;;7.48;100.00
31538;BME280;18147;51.952;6.146;2023-02-13T02:07:47;103646.56;;;7.50;100.00
31538;BME280;18147;51.952;6.146;2023-02-13T02:10:20;103649.28;;;7.39;100.00
31538;BME280;18147;51.952;6.146;2023-02-13T02:15:16;103650.19;;;7.32;100.00
31538;BME280;18147;51.952;6.146;2023-02-13T02:17:42;103648.50;;;7.19;100.00
31538;BME280;18147;51.952;6.146;2023-02-13T02:32:00;103638.50;;;7.68;100.00
31538;BME280;18147;51.952;6.146;2023-02-13T02:37:43;103628.03;;;7.41;100.00
31538;BME280;18147;51.952;6.146;2023-02-13T02:45:44;103622.44;;;7.85;100.00
31538;BME280;18147;51.952;6.146;2023-02-13T02:48:43;103638.47;;;7.74;100.00
31538;BME280;18147;51.952;6.146;2023-02-13T02:54:26;103629.69;;;7.57;100.00
31538;BME280;18147;51.952;6.146;2023-02-13T02:57:24;103634.06;;;7.67;100.00
31538;BME280;18147;51.952;6.146;2023-02-13T03:00:14;103636.78;;;7.57;100.00
31538;BME280;18147;51.952;6.146;2023-02-13T03:02:59;103633.19;;;7.68;100.00
31538;BME280;18147;51.952;6.146;2023-02-13T03:05:45;103627.00;;;7.66;100.00
31538;BME280;18147;51.952;6.146;2023-02-13T03:08:30;103627.03;;;7.60;100.00
31538;BME280;18147;51.952;6.146;2023-02-13T03:11:15;103627.06;;;7.59;100.00
31538;BME280;18147;51.952;6.146;2023-02-13T03:14:04;103623.50;;;7.61;100.00
31538;BME280;18147;51.952;6.146;2023-02-13T03:16:31;103620.94;;;7.43;100.00
31538;BME280;18147;51.952;6.146;2023-02-13T03:19:30;103620.03;;;7.53;100.00
31538;BME280;18147;51.952;6.146;2023-02-13T03:22:32;103622.63;;;7.59;100.00
31538;BME280;18147;51.952;6.146;2023-02-13T03:25:11;103619.81;;;7.81;100.00
31538;BME280;18147;51.952;6.146;2023-02-13T03:27:56;103619.78;;;7.87;100.00
31538;BME280;18147;51.952;6.146;2023-02-13T03:33:48;103625.44;;;7.30;100.00
31538;BME280;18147;51.952;6.146;2023-02-13T03:36:43;103625.16;;;7.73;100.00
31538;BME280;18147;51.952;6.146;2023-02-13T03:39:53;103626.03;;;7.76;100.00
31538;BME280;18147;51.952;6.146;2023-02-13T03:45:12;103636.63;;;7.81;100.00
31538;BME280;18147;51.952;6.146;2023-02-13T03:48:00;103629.69;;;7.57;100.00
31538;BME280;18147;51.952;6.146;2023-02-13T03:50:36;103631.44;;;7.64;100.00
31538;BME280;18147;51.952;6.146;2023-02-13T03:53:09;103638.59;;;7.53;100.00
31538;BME280;18147;51.952;6.146;2023-02-13T03:55:39;103637.66;;;7.63;100.00
31538;BME280;18147;51.952;6.146;2023-02-13T03:58:47;103632.38;;;7.52;100.00
31538;BME280;18147;51.952;6.146;2023-02-13T04:01:35;103634.28;;;7.27;100.00
31538;BME280;18147;51.952;6.146;2023-02-13T04:04:08;103640.38;;;7.51;100.00
31538;BME280;18147;51.952;6.146;2023-02-13T04:09:04;103630.63;;;7.53;100.00
31538;BME280;18147;51.952;6.146;2023-02-13T04:14:19;103638.59;;;7.53;100.00
31538;BME280;18147;51.952;6.146;2023-02-13T04:16:52;103643.06;;;7.43;100.00
31538;BME280;18147;51.952;6.146;2023-02-13T04:19:20;103643.06;;;7.43;100.00
31538;BME280;18147;51.952;6.146;2023-02-13T04:21:53;103635.00;;;7.57;100.00
31538;BME280;18147;51.952;6.146;2023-02-13T04:24:20;103633.34;;;7.41;100.00
31538;BME280;18147;51.952;6.146;2023-02-13T04:26:45;103634.19;;;7.43;100.00
31538;BME280;18147;51.952;6.146;2023-02-13T04:29:11;103638.72;;;7.33;100.00
31538;BME280;18147;51.952;6.146;2023-02-13T04:31:36;103635.97;;;7.48;100.00
31538;BME280;18147;51.952;6.146;2023-02-13T04:34:01;103633.28;;;7.51;100.00
31538;BME280;18147;51.952;6.146;2023-02-13T04:36:27;103634.34;;;7.20;100.00
31538;BME280;18147;51.952;6.146;2023-02-13T04:38:52;103640.50;;;7.28;100.00
31538;BME280;18147;51.952;6.146;2023-02-13T04:41:18;103642.94;;;7.69;100.00
31538;BME280;18147;51.952;6.146;2023-02-13T04:43:43;103638.50;;;7.67;100.00
31538;BME280;18147;51.952;6.146;2023-02-13T04:46:09;103644.03;;;7.22;100.00
31538;BME280;18147;51.952;6.146;2023-02-13T04:48:34;103643.06;;;7.45;100.00
31538;BME280;18147;51.952;6.146;2023-02-13T04:51:00;103642.13;;;7.50;100.00
31538;BME280;18147;51.952;6.146;2023-02-13T04:53:25;103639.47;;;7.52;100.00
31538;BME280;18147;51.952;6.146;2023-02-13T04:55:51;103639.56;;;7.35;100.00
31538;BME280;18147;51.952;6.146;2023-02-13T04:58:16;103642.06;;;7.64;100.00
31538;BME280;18147;51.952;6.146;2023-02-13T05:00:42;103629.75;;;7.51;100.00
31538;BME280;18147;51.952;6.146;2023-02-13T05:03:10;103633.22;;;7.65;100.00
31538;BME280;18147;51.952;6.146;2023-02-13T05:05:36;103634.94;;;7.68;100.00
31538;BME280;18147;51.952;6.146;2023-02-13T05:08:03;103623.53;;;7.55;100.00
31538;BME280;18147;51.952;6.146;2023-02-13T05:10:28;103621.69;;;7.66;100.00
31538;BME280;18147;51.952;6.146;2023-02-13T05:12:54;103616.47;;;7.54;100.00
31538;BME280;18147;51.952;6.146;2023-02-13T05:15:19;103612.91;;;7.55;100.00
31538;BME280;18147;51.952;6.146;2023-02-13T05:17:46;103620.09;;;7.32;100.00
31538;BME280;18147;51.952;6.146;2023-02-13T05:20:13;103627.34;;;6.99;100.00
31538;BME280;18147;51.952;6.146;2023-02-13T05:22:53;103621.09;;;7.15;100.00
31538;BME280;18147;51.952;6.146;2023-02-13T05:25:39;103615.75;;;7.21;100.00
31538;BME280;18147;51.952;6.146;2023-02-13T05:28:05;103618.38;;;7.21;100.00
31538;BME280;18147;51.952;6.146;2023-02-13T05:30:54;103610.38;;;7.32;100.00
31538;BME280;18147;51.952;6.146;2023-02-13T05:33:19;103611.13;;;7.59;100.00
31538;BME280;18147;51.952;6.146;2023-02-13T05:35:44;103611.22;;;7.43;100.00
31538;BME280;18147;51.952;6.146;2023-02-13T05:38:10;103613.84;;;7.49;100.00
31538;BME280;18147;51.952;6.146;2023-02-13T05:40:35;103612.28;;;7.09;100.00
31538;BME280;18147;51.952;6.146;2023-02-13T05:43:01;103615.63;;;7.41;100.00
31538;BME280;18147;51.952;6.146;2023-02-13T05:45:26;103609.47;;;7.39;100.00
31538;BME280;18147;51.952;6.146;2023-02-13T05:47:52;103609.56;;;7.21;100.00
31538;BME280;18147;51.952;6.146;2023-02-13T05:50:18;103616.59;;;7.30;100.00
31538;BME280;18147;51.952;6.146;2023-02-13T05:52:43;103613.84;;;7.45;100.00
31538;BME280;18147;51.952;6.146;2023-02-13T05:55:08;103614.81;;;7.33;100.00
31538;BME280;18147;51.952;6.146;2023-02-13T05:57:34;103614.81;;;7.30;100.00
31538;BME280;18147;51.952;6.146;2023-02-13T05:59:59;103616.59;;;7.30;100.00
31538;BME280;18147;51.952;6.146;2023-02-13T06:02:25;103613.84;;;7.46;100.00
31538;BME280;18147;51.952;6.146;2023-02-13T06:04:50;103616.53;;;7.40;100.00
31538;BME280;18147;51.952;6.146;2023-02-13T06:07:16;103612.97;;;7.49;100.00
31538;BME280;18147;51.952;6.146;2023-02-13T06:09:41;103612.97;;;7.44;100.00
31538;BME280;18147;51.952;6.146;2023-02-13T06:12:07;103613.00;;;7.37;100.00
31538;BME280;18147;51.952;6.146;2023-02-13T06:14:32;103609.41;;;7.53;100.00
31538;BME280;18147;51.952;6.146;2023-02-13T06:17:00;103604.03;;;7.56;100.00
31538;BME280;18147;51.952;6.146;2023-02-13T06:19:28;103611.09;;;7.63;100.00
31538;BME280;18147;51.952;6.146;2023-02-13T06:21:54;103607.56;;;7.60;100.00
31538;BME280;18147;51.952;6.146;2023-02-13T06:24:19;103616.34;;;7.71;100.00
31538;BME280;18147;51.952;6.146;2023-02-13T06:26:45;103617.31;;;7.59;100.00
31538;BME280;18147;51.952;6.146;2023-02-13T06:29:10;103607.63;;;7.50;100.00
31538;BME280;18147;51.952;6.146;2023-02-13T06:31:37;103612.88;;;7.61;100.00
31538;BME280;18147;51.952;6.146;2023-02-13T06:34:02;103615.69;;;7.34;100.00
31538;BME280;18147;51.952;6.146;2023-02-13T06:36:28;103620.03;;;7.50;100.00
31538;BME280;18147;51.952;6.146;2023-02-13T06:38:53;103617.38;;;7.47;100.00
31538;BME280;18147;51.952;6.146;2023-02-13T06:41:19;103617.38;;;7.47;100.00
31538;BME280;18147;51.952;6.146;2023-02-13T06:43:44;103620.03;;;7.50;100.00
31538;BME280;18147;51.952;6.146;2023-02-13T06:46:09;103628.91;;;7.44;100.00
31538;BME280;18147;51.952;6.146;2023-02-13T06:48:35;103628.97;;;7.31;100.00
31538;BME280;18147;51.952;6.146;2023-02-13T06:51:00;103637.78;;;7.37;100.00
31538;BME280;18147;51.952;6.146;2023-02-13T06:53:26;103633.28;;;7.51;100.00
31538;BME280;18147;51.952;6.146;2023-02-13T06:55:52;103637.84;;;7.26;100.00
31538;BME280;18147;51.952;6.146;2023-02-13T06:58:19;103642.25;;;7.34;100.00
31538;BME280;18147;51.952;6.146;2023-02-13T07:00:45;103627.19;;;7.31;100.00
31538;BME280;18147;51.952;6.146;2023-02-13T07:03:10;103644.03;;;7.29;100.00
31538;BME280;18147;51.952;6.146;2023-02-13T07:05:39;103630.66;;;7.42;100.00
31538;BME280;18147;51.952;6.146;2023-02-13T07:08:05;103641.25;;;7.47;100.00
31538;BME280;18147;51.952;6.146;2023-02-13T07:10:31;103643.91;;;7.47;100.00
31538;BME280;18147;51.952;6.146;2023-02-13T07:12:56;103642.97;;;7.63;100.00
31538;BME280;18147;51.952;6.146;2023-02-13T07:15:22;103644.56;;;7.89;100.00
31538;BME280;18147;51.952;6.146;2023-02-13T07:17:47;103646.34;;;7.85;100.00
31538;BME280;18147;51.952;6.146;2023-02-13T07:20:13;103650.81;;;7.83;100.00
31538;BME280;18147;51.952;6.146;2023-02-13T07:22:38;103660.63;;;7.73;100.00
31538;BME280;18147;51.952;6.146;2023-02-13T07:25:03;103650.97;;;7.52;100.00
31538;BME280;18147;51.952;6.146;2023-02-13T07:27:29;103656.16;;;7.78;100.00
31538;BME280;18147;51.952;6.146;2023-02-13T07:29:55;103653.47;;;7.80;100.00
31538;BME280;18147;51.952;6.146;2023-02-13T07:32:22;103654.06;;;8.20;100.00
31538;BME280;18147;51.952;6.146;2023-02-13T07:34:48;103651.22;;;8.43;100.00
31538;BME280;18147;51.952;6.146;2023-02-13T07:37:13;103655.75;;;8.34;100.00
31538;BME280;18147;51.952;6.146;2023-02-13T07:39:38;103658.72;;;7.89;100.00
31538;BME280;18147;51.952;6.146;2023-02-13T07:42:05;103657.84;;;7.90;100.00
31538;BME280;18147;51.952;6.146;2023-02-13T07:44:31;103652.38;;;8.10;100.00
31538;BME280;18147;51.952;6.146;2023-02-13T07:46:57;103653.31;;;8.04;100.00
31538;BME280;18147;51.952;6.146;2023-02-13T07:49:22;103651.44;;;8.19;100.00
31538;BME280;18147;51.952;6.146;2023-02-13T07:51:48;103657.59;;;8.21;100.00
31538;BME280;18147;51.952;6.146;2023-02-13T07:54:13;103662.81;;;8.31;100.00
31538;BME280;18147;51.952;6.146;2023-02-13T07:56:38;103655.59;;;8.53;100.00
31538;BME280;18147;51.952;6.146;2023-02-13T07:59:04;103661.88;;;8.45;100.00
31538;BME280;18147;51.952;6.146;2023-02-13T08:01:29;103666.00;;;8.73;100.00
31538;BME280;18147;51.952;6.146;2023-02-13T08:03:56;103663.25;;;8.82;100.00
31538;BME280;18147;51.952;6.146;2023-02-13T08:06:21;103666.66;;;8.97;100.00
31538;BME280;18147;51.952;6.146;2023-02-13T08:08:49;103659.84;;;8.70;100.00
31538;BME280;18147;51.952;6.146;2023-02-13T08:11:37;103669.50;;;8.80;100.00
31538;BME280;18147;51.952;6.146;2023-02-13T08:14:22;103669.59;;;8.68;100.00
31538;BME280;18147;51.952;6.146;2023-02-13T08:16:48;103676.72;;;8.67;100.00
31538;BME280;18147;51.952;6.146;2023-02-13T08:19:14;103669.34;;;8.92;100.00
31538;BME280;18147;51.952;6.146;2023-02-13T08:21:39;103667.78;;;8.74;100.00
31538;BME280;18147;51.952;6.146;2023-02-13T08:24:05;103666.84;;;8.80;100.00
31538;BME280;18147;51.952;6.146;2023-02-13T08:26:31;103669.53;;;8.77;100.00
31538;BME280;18147;51.952;6.146;2023-02-13T08:28:57;103662.34;;;8.85;100.00
31538;BME280;18147;51.952;6.146;2023-02-13T08:31:23;103666.84;;;8.78;100.00
31538;BME280;18147;51.952;6.146;2023-02-13T08:33:49;103662.34;;;8.85;100.00
31538;BME280;18147;51.952;6.146;2023-02-13T08:36:15;103661.34;;;8.95;100.00
31538;BME280;18147;51.952;6.146;2023-02-13T08:38:40;103662.38;;;8.82;100.00
31538;BME280;18147;51.952;6.146;2023-02-13T08:41:06;103667.59;;;8.94;100.00
31538;BME280;18147;51.952;6.146;2023-02-13T08:43:31;103656.75;;;9.10;100.00
31538;BME280;18147;51.952;6.146;2023-02-13T08:45:58;103663.66;;;9.23;100.00
31538;BME280;18147;51.952;6.146;2023-02-13T08:48:24;103665.47;;;9.24;100.00
31538;BME280;18147;51.952;6.146;2023-02-13T08:50:50;103663.97;;;9.68;100.00
31538;BME280;18147;51.952;6.146;2023-02-13T08:53:15;103671.19;;;9.61;100.00
31538;BME280;18147;51.952;6.146;2023-02-13T08:55:41;103668.44;;;9.66;100.00
31538;BME280;18147;51.952;6.146;2023-02-13T08:58:06;103665.00;;;9.59;100.00
31538;BME280;18147;51.952;6.146;2023-02-13T09:00:31;103666.97;;;9.45;100.00
31538;BME280;18147;51.952;6.146;2023-02-13T09:03:01;103668.53;;;9.58;100.00
31538;BME280;18147;51.952;6.146;2023-02-13T09:05:27;103662.47;;;9.48;100.00
31538;BME280;18147;51.952;6.146;2023-02-13T09:07:53;103671.34;;;9.49;100.00
31538;BME280;18147;51.952;6.146;2023-02-13T09:10:18;103670.22;;;9.64;100.00
31538;BME280;18147;51.952;6.146;2023-02-13T09:12:51;103666.78;;;9.57;100.00
31538;BME280;18147;51.952;6.146;2023-02-13T09:15:16;103658.75;;;9.58;100.00
31538;BME280;18147;51.952;6.146;2023-02-13T09:17:41;103660.34;;;9.73;100.00
31538;BME280;18147;51.952;6.146;2023-02-13T09:20:07;103654.88;;;9.82;100.00
31538;BME280;18147;51.952;6.146;2023-02-13T09:22:33;103652.81;;;10.01;100.00
31538;BME280;18147;51.952;6.146;2023-02-13T09:24:58;103652.56;;;9.58;100.00
31538;BME280;18147;51.952;6.146;2023-02-13T09:27:28;103656.56;;;9.88;100.00
31538;BME280;18147;51.952;6.146;2023-02-13T09:29:54;103660.06;;;9.92;100.00
31538;BME280;18147;51.952;6.146;2023-02-13T09:32:19;103657.00;;;9.57;100.00
31538;BME280;18147;51.952;6.146;2023-02-13T09:34:45;103663.16;;;9.64;100.00
31538;BME280;18147;51.952;6.146;2023-02-13T09:37:10;103664.44;;;9.96;100.00
31538;BME280;18147;51.952;6.146;2023-02-13T09:39:36;103669.88;;;9.90;100.00
31538;BME280;18147;51.952;6.146;2023-02-13T09:42:05;103663.97;;;10.28;100.00
31538;BME280;18147;51.952;6.146;2023-02-13T09:44:40;103669.13;;;9.80;100.00
31538;BME280;18147;51.952;6.146;2023-02-13T09:49:57;103664.72;;;9.79;100.00
31538;BME280;18147;51.952;6.146;2023-02-13T09:52:27;103668.00;;;9.96;100.00
31538;BME280;18147;51.952;6.146;2023-02-13T09:54:56;103666.13;;;10.01;100.00
31538;BME280;18147;51.952;6.146;2023-02-13T09:57:33;103675.75;;;10.11;100.00
31538;BME280;18147;51.952;6.146;2023-02-13T10:10:50;103672.81;;;10.81;100.00
31538;BME280;18147;51.952;6.146;2023-02-13T10:13:21;103667.69;;;11.15;100.00
31538;BME280;18147;51.952;6.146;2023-02-13T10:22:33;103658.44;;;10.40;98.19
31538;BME280;18147;51.952;6.146;2023-02-13T10:24:48;103658.69;;;10.74;100.00
31538;BME280;18147;51.952;6.146;2023-02-13T10:27:22;103658.50;;;10.34;100.00
31538;BME280;18147;51.952;6.146;2023-02-13T10:29:50;103659.38;;;10.36;100.00
31538;BME280;18147;51.952;6.146;2023-02-13T10:32:53;103653.91;;;10.44;100.00
31538;BME280;18147;51.952;6.146;2023-02-13T10:35:41;103659.22;;;10.45;100.00
31538;BME280;18147;51.952;6.146;2023-02-13T10:38:15;103660.03;;;10.49;100.00
31538;BME280;18147;51.952;6.146;2023-02-13T10:41:02;103655.53;;;10.99;100.00
31538;BME280;18147;51.952;6.146;2023-02-13T10:43:36;103665.94;;;10.68;100.00
31538;BME280;18147;51.952;6.146;2023-02-13T10:46:17;103666.16;;;10.55;100.00
31538;BME280;18147;51.952;6.146;2023-02-13T10:51:38;103656.88;;;11.21;100.00
31538;BME280;18147;51.952;6.146;2023-02-13T10:54:15;103649.41;;;11.37;97.15
31538;BME280;18147;51.952;6.146;2023-02-13T10:59:45;103639.28;;;11.11;100.00
31538;BME280;18147;51.952;6.146;2023-02-13T11:02:24;103636.56;;;11.12;100.00
31538;BME280;18147;51.952;6.146;2023-02-13T11:04:58;103627.78;;;11.07;99.41
31538;BME280;18147;51.952;6.146;2023-02-13T11:07:25;103632.38;;;10.99;99.02
31538;BME280;18147;51.952;6.146;2023-02-13T11:09:54;103630.41;;;11.09;96.27
31538;BME280;18147;51.952;6.146;2023-02-13T11:12:23;103630.25;;;11.17;97.56
31538;BME280;18147;51.952;6.146;2023-02-13T11:15:03;103628.34;;;10.78;98.18
31538;BME280;18147;51.952;6.146;2023-02-13T11:17:34;103625.06;;;11.10;97.99
31538;BME280;18147;51.952;6.146;2023-02-13T11:22:47;103620.31;;;11.25;98.36
31538;BME280;18147;51.952;6.146;2023-02-13T11:25:25;103611.72;;;11.09;97.76
31538;BME280;18147;51.952;6.146;2023-02-13T11:28:12;103607.25;;;11.11;96.52
31538;BME280;18147;51.952;6.146;2023-02-13T11:30:41;103607.69;;;10.88;95.43
31538;BME280;18147;51.952;6.146;2023-02-13T11:35:42;103612.66;;;11.48;94.96
31538;BME280;18147;51.952;6.146;2023-02-13T11:40:41;103594.72;;;11.13;95.71
31538;BME280;18147;51.952;6.146;2023-02-13T11:43:26;103601.38;;;11.35;97.09
31538;BME280;18147;51.952;6.146;2023-02-13T11:46:02;103598.66;;;11.37;96.66
31538;BME280;18147;51.952;6.146;2023-02-13T11:48:28;103595.88;;;11.79;96.21
31538;BME280;18147;51.952;6.146;2023-02-13T11:50:54;103583.75;;;11.64;95.00
31538;BME280;18147;51.952;6.146;2023-02-13T11:53:28;103593.03;;;11.49;95.84
31538;BME280;18147;51.952;6.146;2023-02-13T11:56:04;103593.38;;;11.73;94.04
31538;BME280;18147;51.952;6.146;2023-02-13T11:58:32;103586.47;;;11.24;95.60
31538;BME280;18147;51.952;6.146;2023-02-13T12:01:08;103582.63;;;10.97;97.16
31538;BME280;18147;51.952;6.146;2023-02-13T12:03:34;103575.88;;;11.21;95.55
31538;BME280;18147;51.952;6.146;2023-02-13T12:08:28;103572.03;;;11.71;96.82
31538;BME280;18147;51.952;6.146;2023-02-13T12:10:56;103576.41;;;11.74;93.59
31538;BME280;18147;51.952;6.146;2023-02-13T12:13:30;103571.31;;;11.26;93.91
31538;BME280;18147;51.952;6.146;2023-02-13T12:16:03;103574.25;;;11.91;94.04
31538;BME280;18147;51.952;6.146;2023-02-13T12:18:39;103578.25;;;11.72;91.67
31538;BME280;18147;51.952;6.146;2023-02-13T12:26:32;103575.09;;;11.54;95.13
31538;BME280;18147;51.952;6.146;2023-02-13T12:32:18;103579.72;;;11.86;93.44
31538;BME280;18147;51.952;6.146;2023-02-13T12:43:06;103565.03;;;11.27;94.02
31538;BME280;18147;51.952;6.146;2023-02-13T12:56:55;103544.69;;;11.58;96.89
31538;BME280;18147;51.952;6.146;2023-02-13T13:02:55;103537.72;;;11.53;93.23
31538;BME280;18147;51.952;6.146;2023-02-13T13:05:36;103527.53;;;11.68;94.10
31538;BME280;18147;51.952;6.146;2023-02-13T13:24:46;103518.34;;;11.45;92.02
31538;BME280;18147;51.952;6.146;2023-02-13T13:27:19;103518.91;;;11.57;92.35
31538;BME280;18147;51.952;6.146;2023-02-13T13:29:54;103513.06;;;11.41;92.80
31538;BME280;18147;51.952;6.146;2023-02-13T13:32:21;103521.94;;;11.78;91.97
31538;BME280;18147;51.952;6.146;2023-02-13T13:34:49;103513.38;;;11.65;91.12
31538;BME280;18147;51.952;6.146;2023-02-13T13:40:24;103511.88;;;11.90;92.87
31538;BME280;18147;51.952;6.146;2023-02-13T13:45:47;103505.09;;;11.76;90.76
31538;BME280;18147;51.952;6.146;2023-02-13T13:50:59;103504.16;;;11.77;91.78
31538;BME280;18147;51.952;6.146;2023-02-13T13:53:25;103501.00;;;11.97;91.31
31538;BME280;18147;51.952;6.146;2023-02-13T13:58:31;103481.94;;;12.09;90.69
31538;BME280;18147;51.952;6.146;2023-02-13T14:01:16;103486.25;;;11.82;91.45
31538;BME280;18147;51.952;6.146;2023-02-13T14:03:44;103480.03;;;11.80;91.14
31538;BME280;18147;51.952;6.146;2023-02-13T14:06:15;103488.34;;;11.67;92.95
31538;BME280;18147;51.952;6.146;2023-02-13T14:11:34;103476.69;;;12.06;91.06
31538;BME280;18147;51.952;6.146;2023-02-13T14:14:01;103474.88;;;11.72;91.97
31538;BME280;18147;51.952;6.146;2023-02-13T14:16:48;103469.41;;;11.77;92.96
31538;BME280;18147;51.952;6.146;2023-02-13T14:21:50;103474.06;;;11.70;92.53
31538;BME280;18147;51.952;6.146;2023-02-13T14:24:17;103461.25;;;11.83;91.22
31538;BME280;18147;51.952;6.146;2023-02-13T14:26:49;103460.94;;;11.59;91.47
31538;BME280;18147;51.952;6.146;2023-02-13T14:29:22;103460.63;;;11.72;91.78
31538;BME280;18147;51.952;6.146;2023-02-13T14:32:16;103461.09;;;11.89;92.54
31538;BME280;18147;51.952;6.146;2023-02-13T14:34:50;103456.50;;;11.94;91.18
31538;BME280;18147;51.952;6.146;2023-02-13T14:37:20;103461.38;;;11.77;91.94
31538;BME280;18147;51.952;6.146;2023-02-13T14:51:32;103461.94;;;11.91;92.60
31538;BME280;18147;51.952;6.146;2023-02-13T14:54:03;103467.34;;;11.88;93.53
31538;BME280;18147;51.952;6.146;2023-02-13T14:56:30;103461.72;;;11.99;93.99
31538;BME280;18147;51.952;6.146;2023-02-13T14:59:04;103460.06;;;11.59;92.89
31538;BME280;18147;51.952;6.146;2023-02-13T15:01:34;103459.25;;;11.91;92.16
31538;BME280;18147;51.952;6.146;2023-02-13T15:04:10;103456.66;;;11.88;92.62
31538;BME280;18147;51.952;6.146;2023-02-13T15:06:42;103457.09;;;11.71;93.90
31538;BME280;18147;51.952;6.146;2023-02-13T15:09:19;103453.53;;;11.71;93.57
31538;BME280;18147;51.952;6.146;2023-02-13T15:11:46;103447.22;;;11.73;92.79
31538;BME280;18147;51.952;6.146;2023-02-13T15:14:19;103444.53;;;11.75;93.39
31538;BME280;18147;51.952;6.146;2023-02-13T15:16:48;103448.44;;;11.61;92.76
31538;BME280;18147;51.952;6.146;2023-02-13T15:19:16;103445.69;;;11.63;94.26
31538;BME280;18147;51.952;6.146;2023-02-13T15:21:51;103441.97;;;11.70;93.87
31538;BME280;18147;51.952;6.146;2023-02-13T15:24:19;103442.59;;;11.80;93.41
31538;BME280;18147;51.952;6.146;2023-02-13T15:26:53;103450.22;;;11.61;93.64
31538;BME280;18147;51.952;6.146;2023-02-13T15:29:19;103451.25;;;11.55;94.98
31538;BME280;18147;51.952;6.146;2023-02-13T15:31:45;103454.97;;;11.50;96.22
31538;BME280;18147;51.952;6.146;2023-02-13T15:34:28;103450.56;;;11.47;96.55
31538;BME280;18147;51.952;6.146;2023-02-13T15:36:54;103439.94;;;11.46;96.39
31538;BME280;18147;51.952;6.146;2023-02-13T15:39:26;103451.16;;;11.60;96.55